Bk Champc? — DSPN5 — position and weather

sailwx.info

Track history (hours):
 
Tides and Currents Weather Stations Pressure Air Temp Water Temp Dewpoint Dewpoint Depression Visibility Wind Speed Wind Dir Waves Ship Positions

Bk Champc?

Last reported at 2015-Apr-26 17:19 UTC. Time now 2015-Apr-28 19:45 UTC.
Position N 22°09' E 114°17'.

Length 176 m.

Type: Ship. MMSI: 216797491.

Date/timePositionNaut miles runAvg speedWind from/ knotsBaromVisibWave heightAir tempDewpointWater temp
2015-Apr-26 17:19N 22°09' E 114°17'1010.7
2015-Apr-26 16:25N 22°08' E 114°28'31211.6
2015-Apr-25 13:33N 22°35' E 120°04'1010.5
2015-Apr-25 12:33N 22°37' E 120°15'3 2.6
2015-Apr-25 11:29N 22°36' E 120°18'0 0.0
2015-Apr-25 10:11N 22°36' E 120°18'0 0.1
2015-Apr-25 09:16N 22°36' E 120°18'0 0.0
2015-Apr-25 08:32N 22°36' E 120°18'0 0.1
2015-Apr-25 07:32N 22°36' E 120°18'0 0.0
2015-Apr-25 06:33N 22°36' E 120°18'0 0.0
2015-Apr-25 05:33N 22°36' E 120°18'0 0.1
2015-Apr-25 04:32N 22°36' E 120°18'0 0.0
2015-Apr-25 03:33N 22°36' E 120°18'0 0.1
2015-Apr-25 02:31N 22°36' E 120°18'0 0.1
2015-Apr-25 01:33N 22°36' E 120°18'0 0.0
2015-Apr-25 00:28N 22°36' E 120°18'0 0.0
2015-Apr-24 23:22N 22°36' E 120°18'0 0.0
2015-Apr-24 22:33N 22°36' E 120°18'0 0.0
2015-Apr-24 21:30N 22°36' E 120°18'0 1.2
2015-Apr-24 21:27N 22°36' E 120°18'0 0.0
2015-Apr-24 20:30N 22°36' E 120°18'0 0.1
2015-Apr-24 19:30N 22°36' E 120°18'0 0.1
2015-Apr-24 18:32N 22°36' E 120°18'0 0.1
2015-Apr-24 17:33N 22°36' E 120°18'0 0.0
2015-Apr-24 16:27N 22°36' E 120°18'0 0.1
2015-Apr-24 15:32N 22°36' E 120°18'0 0.0
2015-Apr-24 14:33N 22°36' E 120°18'0 0.1
2015-Apr-24 13:31N 22°36' E 120°18'0 0.1
2015-Apr-24 12:33N 22°36' E 120°18'0 0.1
2015-Apr-24 11:27N 22°36' E 120°18'0 0.1
2015-Apr-24 10:28N 22°36' E 120°18'0 0.0
2015-Apr-24 08:26N 22°36' E 120°18'0 0.0
2015-Apr-24 07:32N 22°36' E 120°18'0 0.0
2015-Apr-24 06:29N 22°36' E 120°18'0 0.0
2015-Apr-24 05:29N 22°36' E 120°18'0 0.0
2015-Apr-24 04:26N 22°36' E 120°18'0 0.0
2015-Apr-24 03:31N 22°36' E 120°18'0 0.0
2015-Apr-24 02:31N 22°36' E 120°18'0 0.0
2015-Apr-24 01:29N 22°36' E 120°18'0 0.1
2015-Apr-24 00:33N 22°36' E 120°18'0 0.0
2015-Apr-23 23:27N 22°36' E 120°18'0 0.0
2015-Apr-23 22:30N 22°36' E 120°18'0 0.0
2015-Apr-23 21:15N 22°36' E 120°18'0 0.1
2015-Apr-23 20:33N 22°36' E 120°18'0 0.0
2015-Apr-23 19:27N 22°36' E 120°18'0 0.1
2015-Apr-23 18:32N 22°36' E 120°18'0 0.1
2015-Apr-23 17:30N 22°36' E 120°18'0 0.1
2015-Apr-23 16:33N 22°36' E 120°18'0 0.0
2015-Apr-23 15:13N 22°36' E 120°18'0 0.1
2015-Apr-23 14:32N 22°36' E 120°18'0 0.0
2015-Apr-23 13:33N 22°36' E 120°18'0 0.1
2015-Apr-23 12:33N 22°36' E 120°18'0 0.1
2015-Apr-23 11:32N 22°36' E 120°18'0 0.1
2015-Apr-23 10:33N 22°36' E 120°18'0 0.0
2015-Apr-23 09:28N 22°36' E 120°18'0 0.0
2015-Apr-23 08:28N 22°36' E 120°18'0 0.1
2015-Apr-23 07:30N 22°36' E 120°18'0 0.1
2015-Apr-23 06:32N 22°36' E 120°18'0 0.0
2015-Apr-23 05:17N 22°36' E 120°18'0 0.0
2015-Apr-23 04:30N 22°36' E 120°18'0 0.1
2015-Apr-23 03:32N 22°36' E 120°18'0 0.0
2015-Apr-23 02:07N 22°36' E 120°18'0 0.0
2015-Apr-23 01:33N 22°36' E 120°18'0 0.1
2015-Apr-23 00:32N 22°36' E 120°18'0 0.1
2015-Apr-22 23:30N 22°36' E 120°18'4 4.2
2015-Apr-22 22:32N 22°37' E 120°13'0 0.0
2015-Apr-22 21:29N 22°37' E 120°13'0 0.0
2015-Apr-22 20:29N 22°37' E 120°13'0 0.1
2015-Apr-22 19:32N 22°37' E 120°13'0 0.1
2015-Apr-22 18:32N 22°37' E 120°13'0 0.0
2015-Apr-22 17:34N 22°37' E 120°13'0 0.1
2015-Apr-22 16:32N 22°37' E 120°13'0 0.1
2015-Apr-22 15:30N 22°37' E 120°13'0 0.2
2015-Apr-22 14:33N 22°37' E 120°13'7 7.2
2015-Apr-22 13:33N 22°41' E 120°07'1212.4
2015-Apr-22 12:33N 22°49' E 119°56'5413.3
2015-Apr-22 08:31N 23°43' E 119°54'8 8.5
2015-Apr-22 07:33N 23°46' E 119°46'11 8.4
2015-Apr-22 06:15N 23°53' E 119°37'7 8.9
2015-Apr-22 05:26N 23°55' E 119°29'5611.1
2015-Apr-22 00:24N 24°09' E 118°30'1012.3
2015-Apr-21 23:32N 24°13' E 118°19'1313.5
2015-Apr-21 22:33N 24°22' E 118°08'10 9.9
2015-Apr-21 21:33N 24°31' E 118°05'1 0.8
2015-Apr-21 20:26N 24°32' E 118°05'0 0.0
2015-Apr-21 19:14N 24°32' E 118°05'0 0.0
2015-Apr-21 18:29N 24°32' E 118°05'0 0.0
2015-Apr-21 17:14N 24°32' E 118°05'0 0.0
2015-Apr-21 16:32N 24°32' E 118°05'0 0.0
2015-Apr-21 14:20N 24°32' E 118°05'0 0.0
2015-Apr-21 12:08N 24°32' E 118°05'0 0.0
2015-Apr-21 10:32N 24°32' E 118°05'0 0.0
2015-Apr-21 07:26N 24°32' E 118°05'0 0.0
2015-Apr-21 06:20N 24°32' E 118°05'0 0.0
2015-Apr-21 05:20N 24°32' E 118°05'0 0.0
2015-Apr-21 04:05N 24°32' E 118°05'0 0.0
2015-Apr-21 03:32N 24°32' E 118°05'0 0.0
2015-Apr-21 01:26N 24°32' E 118°05'0 0.0
2015-Apr-21 00:32N 24°32' E 118°05'0 0.0
2015-Apr-20 23:32N 24°32' E 118°05'0 0.0
2015-Apr-20 22:32N 24°32' E 118°05'0 0.0
2015-Apr-20 21:26N 24°32' E 118°05'0 0.0
2015-Apr-20 20:26N 24°32' E 118°05'0 0.0
2015-Apr-20 19:29N 24°32' E 118°05'0 0.0
2015-Apr-20 18:20N 24°32' E 118°05'0 0.0
2015-Apr-20 17:26N 24°32' E 118°05'0 0.0
2015-Apr-20 16:26N 24°32' E 118°05'0 0.0
2015-Apr-20 15:20N 24°32' E 118°05'0 0.0
2015-Apr-20 14:32N 24°32' E 118°05'0 0.0
2015-Apr-20 13:20N 24°32' E 118°05'0 0.0
2015-Apr-20 11:14N 24°32' E 118°05'0 0.0
2015-Apr-20 09:20N 24°32' E 118°05'0 0.0
2015-Apr-20 08:14N 24°32' E 118°05'0 0.0
2015-Apr-20 07:20N 24°32' E 118°05'0 0.0
2015-Apr-20 06:32N 24°32' E 118°05'0 0.0
2015-Apr-20 05:32N 24°32' E 118°05'0 0.0
2015-Apr-20 03:20N 24°32' E 118°05'0 0.0
2015-Apr-20 01:32N 24°32' E 118°05'0 0.0
2015-Apr-20 00:32N 24°32' E 118°05'0 0.0
2015-Apr-19 23:32N 24°32' E 118°05'0 0.1
2015-Apr-19 22:32N 24°32' E 118°05'0 0.0
2015-Apr-19 21:17N 24°32' E 118°05'0 0.0
2015-Apr-19 20:26N 24°32' E 118°05'0 0.0
2015-Apr-19 19:32N 24°32' E 118°05'0 0.0
2015-Apr-19 18:20N 24°32' E 118°05'0 0.0
2015-Apr-19 17:29N 24°32' E 118°05'0 0.0
2015-Apr-19 16:26N 24°32' E 118°05'0 0.0
2015-Apr-19 15:32N 24°32' E 118°05'0 0.0
2015-Apr-19 14:20N 24°32' E 118°05'0 0.0
2015-Apr-19 12:14N 24°32' E 118°05'0 0.0
2015-Apr-19 11:14N 24°32' E 118°05'0 0.0
2015-Apr-19 10:26N 24°32' E 118°05'6 7.0
2015-Apr-19 09:32N 24°26' E 118°04'10 9.9
2015-Apr-19 08:33N 24°19' E 118°11'4 3.8
2015-Apr-19 07:29N 24°17' E 118°15'0 0.0
2015-Apr-19 06:29N 24°17' E 118°15'3 2.9
2015-Apr-19 05:33N 24°14' E 118°17'10 9.8
2015-Apr-19 04:32N 24°04' E 118°18'1111.2
2015-Apr-19 03:33N 23°54' E 118°13'1212.2
2015-Apr-19 02:33N 23°43' E 118°09'9513.3
2015-Apr-18 19:26N 22°36' E 116°55'1312.9
2015-Apr-18 18:27N 22°30' E 116°43'38612.9
2015-Apr-17 12:33N 20°10' E 110°17'14011.6
2015-Apr-17 00:33N 21°36' E 108°20'0 0.3
2015-Apr-16 23:29N 21°36' E 108°20'0 0.0
2015-Apr-16 22:29N 21°37' E 108°20'0 0.0
2015-Apr-16 21:29N 21°36' E 108°20'0 0.0
2015-Apr-16 20:29N 21°36' E 108°20'0 0.0
2015-Apr-16 19:29N 21°36' E 108°20'0 0.0
2015-Apr-16 18:29N 21°37' E 108°20'0 0.0
2015-Apr-16 17:29N 21°37' E 108°20'  
Track history (hours):
 
Tides and Currents Weather Stations Pressure Air Temp Water Temp Dewpoint Dewpoint Depression Visibility Wind Speed Wind Dir Waves Ship Positions

Bk Champc?

Last reported at 2015-Apr-26 17:19 UTC. Time now 2015-Apr-28 19:45 UTC.
Position N 22°09' E 114°17'.

Length 176 m.

Type: Ship. MMSI: 216797491.

Date/timePositionNaut miles runAvg speedWind from/ knotsBaromVisibWave heightAir tempDewpointWater temp
2015-Apr-26 17:19N 22°09' E 114°17'1010.7
2015-Apr-26 16:25N 22°08' E 114°28'31211.6
2015-Apr-25 13:33N 22°35' E 120°04'1010.5
2015-Apr-25 12:33N 22°37' E 120°15'3 2.6
2015-Apr-25 11:29N 22°36' E 120°18'0 0.0
2015-Apr-25 10:11N 22°36' E 120°18'0 0.1
2015-Apr-25 09:16N 22°36' E 120°18'0 0.0
2015-Apr-25 08:32N 22°36' E 120°18'0 0.1
2015-Apr-25 07:32N 22°36' E 120°18'0 0.0
2015-Apr-25 06:33N 22°36' E 120°18'0 0.0
2015-Apr-25 05:33N 22°36' E 120°18'0 0.1
2015-Apr-25 04:32N 22°36' E 120°18'0 0.0
2015-Apr-25 03:33N 22°36' E 120°18'0 0.1
2015-Apr-25 02:31N 22°36' E 120°18'0 0.1
2015-Apr-25 01:33N 22°36' E 120°18'0 0.0
2015-Apr-25 00:28N 22°36' E 120°18'0 0.0
2015-Apr-24 23:22N 22°36' E 120°18'0 0.0
2015-Apr-24 22:33N 22°36' E 120°18'0 0.0
2015-Apr-24 21:30N 22°36' E 120°18'0 1.2
2015-Apr-24 21:27N 22°36' E 120°18'0 0.0
2015-Apr-24 20:30N 22°36' E 120°18'0 0.1
2015-Apr-24 19:30N 22°36' E 120°18'0 0.1
2015-Apr-24 18:32N 22°36' E 120°18'0 0.1
2015-Apr-24 17:33N 22°36' E 120°18'0 0.0
2015-Apr-24 16:27N 22°36' E 120°18'0 0.1
2015-Apr-24 15:32N 22°36' E 120°18'0 0.0
2015-Apr-24 14:33N 22°36' E 120°18'0 0.1
2015-Apr-24 13:31N 22°36' E 120°18'0 0.1
2015-Apr-24 12:33N 22°36' E 120°18'0 0.1
2015-Apr-24 11:27N 22°36' E 120°18'0 0.1
2015-Apr-24 10:28N 22°36' E 120°18'0 0.0
2015-Apr-24 08:26N 22°36' E 120°18'0 0.0
2015-Apr-24 07:32N 22°36' E 120°18'0 0.0
2015-Apr-24 06:29N 22°36' E 120°18'0 0.0
2015-Apr-24 05:29N 22°36' E 120°18'0 0.0
2015-Apr-24 04:26N 22°36' E 120°18'0 0.0
2015-Apr-24 03:31N 22°36' E 120°18'0 0.0
2015-Apr-24 02:31N 22°36' E 120°18'0 0.0
2015-Apr-24 01:29N 22°36' E 120°18'0 0.1
2015-Apr-24 00:33N 22°36' E 120°18'0 0.0
2015-Apr-23 23:27N 22°36' E 120°18'0 0.0
2015-Apr-23 22:30N 22°36' E 120°18'0 0.0
2015-Apr-23 21:15N 22°36' E 120°18'0 0.1
2015-Apr-23 20:33N 22°36' E 120°18'0 0.0
2015-Apr-23 19:27N 22°36' E 120°18'0 0.1
2015-Apr-23 18:32N 22°36' E 120°18'0 0.1
2015-Apr-23 17:30N 22°36' E 120°18'0 0.1
2015-Apr-23 16:33N 22°36' E 120°18'0 0.0
2015-Apr-23 15:13N 22°36' E 120°18'0 0.1
2015-Apr-23 14:32N 22°36' E 120°18'0 0.0
2015-Apr-23 13:33N 22°36' E 120°18'0 0.1
2015-Apr-23 12:33N 22°36' E 120°18'0 0.1
2015-Apr-23 11:32N 22°36' E 120°18'0 0.1
2015-Apr-23 10:33N 22°36' E 120°18'0 0.0
2015-Apr-23 09:28N 22°36' E 120°18'0 0.0
2015-Apr-23 08:28N 22°36' E 120°18'0 0.1
2015-Apr-23 07:30N 22°36' E 120°18'0 0.1
2015-Apr-23 06:32N 22°36' E 120°18'0 0.0
2015-Apr-23 05:17N 22°36' E 120°18'0 0.0
2015-Apr-23 04:30N 22°36' E 120°18'0 0.1
2015-Apr-23 03:32N 22°36' E 120°18'0 0.0
2015-Apr-23 02:07N 22°36' E 120°18'0 0.0
2015-Apr-23 01:33N 22°36' E 120°18'0 0.1
2015-Apr-23 00:32N 22°36' E 120°18'0 0.1
2015-Apr-22 23:30N 22°36' E 120°18'4 4.2
2015-Apr-22 22:32N 22°37' E 120°13'0 0.0
2015-Apr-22 21:29N 22°37' E 120°13'0 0.0
2015-Apr-22 20:29N 22°37' E 120°13'0 0.1
2015-Apr-22 19:32N 22°37' E 120°13'0 0.1
2015-Apr-22 18:32N 22°37' E 120°13'0 0.0
2015-Apr-22 17:34N 22°37' E 120°13'0 0.1
2015-Apr-22 16:32N 22°37' E 120°13'0 0.1
2015-Apr-22 15:30N 22°37' E 120°13'0 0.2
2015-Apr-22 14:33N 22°37' E 120°13'7 7.2
2015-Apr-22 13:33N 22°41' E 120°07'1212.4
2015-Apr-22 12:33N 22°49' E 119°56'5413.3
2015-Apr-22 08:31N 23°43' E 119°54'8 8.5
2015-Apr-22 07:33N 23°46' E 119°46'11 8.4
2015-Apr-22 06:15N 23°53' E 119°37'7 8.9
2015-Apr-22 05:26N 23°55' E 119°29'5611.1
2015-Apr-22 00:24N 24°09' E 118°30'1012.3
2015-Apr-21 23:32N 24°13' E 118°19'1313.5
2015-Apr-21 22:33N 24°22' E 118°08'10 9.9
2015-Apr-21 21:33N 24°31' E 118°05'1 0.8
2015-Apr-21 20:26N 24°32' E 118°05'0 0.0
2015-Apr-21 19:14N 24°32' E 118°05'0 0.0
2015-Apr-21 18:29N 24°32' E 118°05'0 0.0
2015-Apr-21 17:14N 24°32' E 118°05'0 0.0
2015-Apr-21 16:32N 24°32' E 118°05'0 0.0
2015-Apr-21 14:20N 24°32' E 118°05'0 0.0
2015-Apr-21 12:08N 24°32' E 118°05'0 0.0
2015-Apr-21 10:32N 24°32' E 118°05'0 0.0
2015-Apr-21 07:26N 24°32' E 118°05'0 0.0
2015-Apr-21 06:20N 24°32' E 118°05'0 0.0
2015-Apr-21 05:20N 24°32' E 118°05'0 0.0
2015-Apr-21 04:05N 24°32' E 118°05'0 0.0
2015-Apr-21 03:32N 24°32' E 118°05'0 0.0
2015-Apr-21 01:26N 24°32' E 118°05'0 0.0
2015-Apr-21 00:32N 24°32' E 118°05'0 0.0
2015-Apr-20 23:32N 24°32' E 118°05'0 0.0
2015-Apr-20 22:32N 24°32' E 118°05'0 0.0
2015-Apr-20 21:26N 24°32' E 118°05'0 0.0
2015-Apr-20 20:26N 24°32' E 118°05'0 0.0
2015-Apr-20 19:29N 24°32' E 118°05'0 0.0
2015-Apr-20 18:20N 24°32' E 118°05'0 0.0
2015-Apr-20 17:26N 24°32' E 118°05'0 0.0
2015-Apr-20 16:26N 24°32' E 118°05'0 0.0
2015-Apr-20 15:20N 24°32' E 118°05'0 0.0
2015-Apr-20 14:32N 24°32' E 118°05'0 0.0
2015-Apr-20 13:20N 24°32' E 118°05'0 0.0
2015-Apr-20 11:14N 24°32' E 118°05'0 0.0
2015-Apr-20 09:20N 24°32' E 118°05'0 0.0
2015-Apr-20 08:14N 24°32' E 118°05'0 0.0
2015-Apr-20 07:20N 24°32' E 118°05'0 0.0
2015-Apr-20 06:32N 24°32' E 118°05'0 0.0
2015-Apr-20 05:32N 24°32' E 118°05'0 0.0
2015-Apr-20 03:20N 24°32' E 118°05'0 0.0
2015-Apr-20 01:32N 24°32' E 118°05'0 0.0
2015-Apr-20 00:32N 24°32' E 118°05'0 0.0
2015-Apr-19 23:32N 24°32' E 118°05'0 0.1
2015-Apr-19 22:32N 24°32' E 118°05'0 0.0
2015-Apr-19 21:17N 24°32' E 118°05'0 0.0
2015-Apr-19 20:26N 24°32' E 118°05'0 0.0
2015-Apr-19 19:32N 24°32' E 118°05'0 0.0
2015-Apr-19 18:20N 24°32' E 118°05'0 0.0
2015-Apr-19 17:29N 24°32' E 118°05'0 0.0
2015-Apr-19 16:26N 24°32' E 118°05'0 0.0
2015-Apr-19 15:32N 24°32' E 118°05'0 0.0
2015-Apr-19 14:20N 24°32' E 118°05'0 0.0
2015-Apr-19 12:14N 24°32' E 118°05'0 0.0
2015-Apr-19 11:14N 24°32' E 118°05'0 0.0
2015-Apr-19 10:26N 24°32' E 118°05'6 7.0
2015-Apr-19 09:32N 24°26' E 118°04'10 9.9
2015-Apr-19 08:33N 24°19' E 118°11'4 3.8
2015-Apr-19 07:29N 24°17' E 118°15'0 0.0
2015-Apr-19 06:29N 24°17' E 118°15'3 2.9
2015-Apr-19 05:33N 24°14' E 118°17'10 9.8
2015-Apr-19 04:32N 24°04' E 118°18'1111.2
2015-Apr-19 03:33N 23°54' E 118°13'1212.2
2015-Apr-19 02:33N 23°43' E 118°09'9513.3
2015-Apr-18 19:26N 22°36' E 116°55'1312.9
2015-Apr-18 18:27N 22°30' E 116°43'38612.9
2015-Apr-17 12:33N 20°10' E 110°17'14011.6
2015-Apr-17 00:33N 21°36' E 108°20'0 0.3
2015-Apr-16 23:29N 21°36' E 108°20'0 0.0
2015-Apr-16 22:29N 21°37' E 108°20'0 0.0
2015-Apr-16 21:29N 21°36' E 108°20'0 0.0
2015-Apr-16 20:29N 21°36' E 108°20'0 0.0
2015-Apr-16 19:29N 21°36' E 108°20'0 0.0
2015-Apr-16 18:29N 21°37' E 108°20'0 0.0
2015-Apr-16 17:29N 21°37' E 108°20'  

Dump ship's entire track history